createdAt,value
2019-01-23T00:00:52.936Z,55.90
2019-01-23T00:03:20.175Z,53.87
2019-01-23T00:05:47.635Z,50.53
2019-01-23T00:08:14.892Z,47.80
2019-01-23T00:10:42.137Z,49.03
2019-01-23T00:13:09.419Z,46.27
2019-01-23T00:15:36.662Z,48.57
2019-01-23T00:18:04.020Z,50.97
2019-01-23T00:20:31.243Z,49.87
2019-01-23T00:22:58.484Z,50.03
2019-01-23T00:25:25.805Z,46.80
2019-01-23T00:27:53.034Z,50.77
2019-01-23T00:30:20.397Z,57.43
2019-01-23T00:32:47.666Z,48.07
2019-01-23T00:35:14.912Z,48.60
2019-01-23T00:37:42.170Z,57.83
2019-01-23T00:40:09.690Z,53.87
2019-01-23T00:42:36.979Z,56.63
2019-01-23T00:45:05.789Z,55.87
2019-01-23T00:47:33.090Z,54.63
2019-01-23T00:50:00.357Z,52.20
2019-01-23T00:52:27.731Z,45.60
2019-01-23T00:54:55.008Z,47.67
2019-01-23T00:57:22.276Z,51.77
2019-01-23T00:59:49.526Z,43.20
2019-01-23T01:02:16.785Z,47.50
2019-01-23T01:04:44.112Z,47.73
2019-01-23T01:07:11.674Z,48.67
2019-01-23T01:09:39.184Z,55.20
2019-01-23T01:12:06.466Z,50.53
2019-01-23T01:14:33.771Z,50.27
2019-01-23T01:17:00.996Z,52.07
2019-01-23T01:19:28.545Z,53.20
2019-01-23T01:21:55.802Z,51.50
2019-01-23T01:24:23.223Z,48.33
2019-01-23T01:26:50.450Z,51.10
2019-01-23T01:29:17.740Z,49.03
2019-01-23T01:31:44.981Z,55.83
2019-01-23T01:34:12.210Z,49.37
2019-01-23T01:36:39.583Z,48.27
2019-01-23T01:39:08.043Z,47.00
2019-01-23T01:41:35.630Z,49.33
2019-01-23T01:44:02.966Z,51.20
2019-01-23T01:46:30.290Z,51.40
2019-01-23T01:48:57.556Z,44.63
2019-01-23T01:51:24.830Z,46.80
2019-01-23T01:53:52.374Z,51.63
2019-01-23T01:56:19.612Z,52.83
2019-01-23T01:58:46.866Z,55.07
2019-01-23T02:01:14.117Z,47.50
2019-01-23T02:03:41.365Z,48.80
2019-01-23T02:06:08.726Z,54.30
2019-01-23T02:08:35.953Z,47.30
2019-01-23T02:11:03.444Z,46.13
2019-01-23T02:13:30.706Z,44.90
2019-01-23T02:15:57.945Z,49.57
2019-01-23T02:18:25.237Z,50.27
2019-01-23T02:20:52.561Z,51.17
2019-01-23T02:23:19.782Z,51.67
2019-01-23T02:25:47.033Z,46.77
2019-01-23T02:28:14.273Z,50.00
2019-01-23T02:30:41.571Z,46.50
2019-01-23T02:33:08.818Z,50.30
2019-01-23T02:35:36.074Z,45.93
2019-01-23T02:38:03.465Z,48.50
2019-01-23T02:40:30.697Z,43.77
2019-01-23T02:42:57.945Z,47.57
2019-01-23T02:45:25.288Z,51.87
2019-01-23T02:47:52.515Z,51.47
2019-01-23T02:50:19.827Z,51.93
2019-01-23T02:52:47.066Z,48.63
2019-01-23T02:55:14.280Z,49.70
2019-01-23T02:57:41.525Z,49.30
2019-01-23T03:00:11.744Z,55.40
2019-01-23T03:02:39.054Z,53.17
2019-01-23T03:05:08.894Z,55.10
2019-01-23T03:07:36.144Z,57.27
2019-01-23T03:10:05.491Z,53.97
2019-01-23T03:12:32.763Z,60.03
2019-01-23T03:15:00.034Z,54.50
2019-01-23T03:17:27.266Z,56.90
2019-01-23T03:19:54.639Z,54.83
2019-01-23T03:22:21.889Z,54.83
2019-01-23T03:24:49.130Z,53.10
2019-01-23T03:27:16.394Z,57.37
2019-01-23T03:29:43.626Z,61.70
2019-01-23T03:32:10.846Z,67.77
2019-01-23T03:34:38.103Z,74.37
2019-01-23T03:37:05.346Z,61.03
2019-01-23T03:39:32.589Z,55.50
2019-01-23T03:41:59.933Z,57.23
2019-01-23T03:44:27.185Z,60.30
2019-01-23T03:46:54.440Z,51.63
2019-01-23T03:49:21.681Z,63.20
2019-01-23T03:51:48.967Z,61.17
2019-01-23T03:54:16.237Z,55.70
2019-01-23T03:56:44.179Z,63.47
2019-01-23T03:59:11.390Z,56.13
2019-01-23T04:01:38.651Z,55.67
2019-01-23T04:04:05.993Z,58.10
2019-01-23T04:06:33.255Z,53.60
2019-01-23T04:09:00.638Z,61.10
2019-01-23T04:11:27.847Z,52.20
2019-01-23T04:13:55.101Z,56.00
2019-01-23T04:16:22.397Z,50.17
2019-01-23T04:18:49.650Z,47.77
2019-01-23T04:21:16.861Z,50.10
2019-01-23T04:23:44.140Z,52.33
2019-01-23T04:26:11.345Z,49.43
2019-01-23T04:28:38.562Z,54.80
2019-01-23T04:31:05.829Z,42.50
2019-01-23T04:33:33.128Z,55.23
2019-01-23T04:36:00.345Z,54.13
2019-01-23T04:38:27.575Z,44.90
2019-01-23T04:40:54.791Z,53.60
2019-01-23T04:43:22.050Z,47.63
2019-01-23T04:45:49.265Z,50.83
2019-01-23T04:48:16.561Z,43.30
2019-01-23T04:51:15.175Z,41.57
2019-01-23T04:53:44.507Z,45.73
2019-01-23T04:56:11.706Z,44.17
2019-01-23T04:58:38.931Z,43.83
2019-01-23T05:01:06.170Z,44.23
2019-01-23T05:03:33.396Z,41.00
2019-01-23T05:06:01.423Z,50.07
2019-01-23T05:08:28.698Z,42.83
2019-01-23T05:10:55.923Z,63.53
2019-01-23T05:13:23.135Z,45.50
2019-01-23T05:15:50.394Z,55.43
2019-01-23T05:18:17.607Z,47.43
2019-01-23T05:20:44.867Z,50.60
2019-01-23T05:23:12.068Z,56.90
2019-01-23T05:25:39.281Z,49.20
2019-01-23T05:28:06.527Z,47.27
2019-01-23T05:30:33.807Z,42.13
2019-01-23T05:33:01.019Z,42.27
2019-01-23T05:35:28.270Z,42.03
2019-01-23T05:37:55.447Z,45.13
2019-01-23T05:40:22.700Z,35.67
2019-01-23T05:42:49.925Z,49.00
2019-01-23T05:45:17.144Z,50.90
2019-01-23T05:47:44.369Z,42.70
2019-01-23T05:50:14.072Z,41.13
2019-01-23T05:52:41.390Z,47.53
2019-01-23T05:55:09.668Z,41.83
2019-01-23T05:57:36.897Z,46.13
2019-01-23T06:00:05.870Z,55.10
2019-01-23T06:02:33.108Z,57.13
2019-01-23T06:05:00.307Z,48.20
2019-01-23T06:07:27.540Z,54.13
2019-01-23T06:09:54.757Z,53.77
2019-01-23T06:12:22.060Z,75.43
2019-01-23T06:14:49.303Z,48.87
2019-01-23T06:17:16.527Z,38.93
2019-01-23T06:19:43.743Z,42.40
2019-01-23T06:22:11.009Z,44.63
2019-01-23T06:24:38.232Z,45.03
2019-01-23T06:27:05.427Z,54.00
2019-01-23T06:29:32.694Z,58.47
2019-01-23T06:31:59.906Z,53.17
2019-01-23T06:34:27.104Z,54.67
2019-01-23T06:36:54.827Z,69.77
2019-01-23T06:39:22.024Z,56.47
2019-01-23T06:41:49.227Z,57.37
2019-01-23T06:44:16.467Z,58.80
2019-01-23T06:46:43.764Z,50.50
2019-01-23T06:49:10.996Z,44.60
2019-01-23T06:51:38.193Z,34.27
2019-01-23T06:54:05.423Z,44.97
2019-01-23T06:56:32.828Z,54.30
2019-01-23T06:59:00.054Z,48.60
2019-01-23T07:01:27.271Z,39.17
2019-01-23T07:03:54.468Z,43.93
2019-01-23T07:06:21.687Z,45.10
2019-01-23T07:08:48.972Z,41.17
2019-01-23T07:11:16.217Z,59.67
2019-01-23T07:13:43.427Z,97.37
2019-01-23T07:16:10.729Z,88.23
2019-01-23T07:19:04.472Z,96.00
2019-01-23T07:21:31.833Z,95.50
2019-01-23T07:23:59.141Z,89.40
2019-01-23T07:26:26.368Z,84.37
2019-01-23T07:28:53.623Z,109.93
2019-01-23T07:31:20.847Z,92.27
2019-01-23T07:33:48.113Z,78.70
2019-01-23T07:36:15.350Z,85.63
2019-01-23T07:38:42.558Z,79.40
2019-01-23T07:41:09.807Z,90.50
2019-01-23T07:43:37.124Z,81.57
2019-01-23T07:46:04.586Z,89.63
2019-01-23T07:48:31.817Z,85.73
2019-01-23T07:50:59.016Z,96.27
2019-01-23T07:53:26.272Z,88.77
2019-01-23T07:55:53.484Z,85.23
2019-01-23T07:58:20.701Z,69.30
2019-01-23T08:00:47.926Z,87.73
2019-01-23T08:03:15.143Z,75.53
2019-01-23T08:05:42.366Z,79.60
2019-01-23T08:08:09.623Z,106.47
2019-01-23T08:10:36.795Z,97.70
2019-01-23T08:13:04.277Z,94.17
2019-01-23T08:15:34.073Z,93.77
2019-01-23T08:18:02.355Z,100.17
2019-01-23T08:20:29.839Z,107.17
2019-01-23T08:22:57.091Z,103.87
2019-01-23T08:25:24.912Z,123.37
2019-01-23T08:27:52.292Z,98.87
2019-01-23T08:30:20.211Z,120.10
2019-01-23T08:32:47.483Z,112.33
2019-01-23T08:35:15.037Z,97.57
2019-01-23T08:37:42.260Z,124.60
2019-01-23T08:40:11.448Z,110.47
2019-01-23T08:42:38.783Z,96.57
2019-01-23T08:45:07.184Z,120.77
2019-01-23T08:47:34.514Z,117.20
2019-01-23T08:50:01.731Z,112.23
2019-01-23T08:52:29.738Z,118.77
2019-01-23T08:54:56.975Z,91.47
2019-01-23T08:57:24.184Z,123.17
2019-01-23T08:59:51.443Z,116.97
2019-01-23T09:02:18.662Z,116.40
2019-01-23T09:04:46.046Z,105.40
2019-01-23T09:07:13.330Z,112.67
2019-01-23T09:09:40.544Z,107.60
2019-01-23T09:12:08.686Z,121.30
2019-01-23T09:14:36.207Z,122.93
2019-01-23T09:17:03.617Z,130.60
2019-01-23T09:19:30.822Z,118.30
2019-01-23T09:21:58.295Z,121.70
2019-01-23T09:24:25.522Z,115.50
2019-01-23T09:26:52.717Z,114.50
2019-01-23T09:29:20.045Z,118.57
2019-01-23T09:32:38.141Z,108.43
2019-01-23T09:35:43.820Z,114.23
2019-01-23T09:39:03.818Z,113.40
2019-01-23T09:42:07.154Z,105.17
2019-01-23T09:45:09.367Z,96.10
2019-01-23T09:47:53.602Z,112.43
2019-01-23T09:51:07.944Z,100.83
2019-01-23T09:53:43.715Z,112.17
2019-01-23T09:56:13.072Z,81.00
2019-01-23T09:58:40.323Z,91.70
2019-01-23T10:01:07.543Z,80.97
2019-01-23T10:03:34.772Z,99.20
2019-01-23T10:06:02.017Z,95.33
2019-01-23T10:08:29.323Z,102.87
2019-01-23T10:10:56.601Z,93.60
2019-01-23T10:13:23.799Z,95.13
2019-01-23T10:16:01.077Z,86.93
2019-01-23T10:18:28.300Z,98.77
2019-01-23T10:20:55.644Z,87.70
2019-01-23T10:23:22.915Z,90.27
2019-01-23T10:25:50.147Z,88.63
2019-01-23T10:28:17.373Z,86.33
2019-01-23T10:30:44.618Z,84.60
2019-01-23T10:33:11.827Z,88.73
2019-01-23T10:35:39.966Z,91.80
2019-01-23T10:38:07.228Z,90.10
2019-01-23T10:40:37.361Z,88.97
2019-01-23T10:43:04.982Z,84.47
2019-01-23T10:45:32.240Z,85.67
2019-01-23T10:47:59.500Z,86.73
2019-01-23T10:50:27.071Z,81.23
2019-01-23T10:52:54.320Z,82.67
2019-01-23T10:55:21.580Z,85.27
2019-01-23T10:57:48.911Z,80.13
2019-01-23T11:00:17.318Z,82.77
2019-01-23T11:02:44.564Z,90.90
2019-01-23T11:05:14.684Z,80.87
2019-01-23T11:07:41.951Z,83.50
2019-01-23T11:10:12.287Z,73.30
2019-01-23T11:12:39.701Z,77.73
2019-01-23T11:15:07.096Z,73.07
2019-01-23T11:17:34.325Z,71.37
2019-01-23T11:20:01.648Z,65.37
2019-01-23T11:22:29.030Z,60.00
2019-01-23T11:24:56.330Z,64.13
2019-01-23T11:27:23.578Z,62.83
2019-01-23T11:29:50.786Z,59.50
2019-01-23T11:32:17.995Z,62.13
2019-01-23T11:34:45.262Z,61.60
2019-01-23T11:37:12.457Z,56.50
2019-01-23T11:39:39.802Z,62.00
2019-01-23T11:42:07.056Z,54.23
2019-01-23T11:44:34.258Z,48.37
2019-01-23T11:47:01.603Z,56.80
2019-01-23T11:49:28.859Z,50.93
2019-01-23T11:51:56.128Z,53.97
2019-01-23T11:54:23.688Z,45.63
2019-01-23T11:56:51.320Z,40.63
2019-01-23T11:59:18.505Z,48.10
2019-01-23T12:01:46.136Z,42.43
2019-01-23T12:04:13.412Z,45.43
2019-01-23T12:06:40.615Z,42.30
2019-01-23T12:09:09.114Z,35.00
2019-01-23T12:11:36.480Z,33.60
2019-01-23T12:14:03.999Z,37.33
2019-01-23T12:16:31.298Z,33.47
2019-01-23T12:18:58.530Z,34.43
2019-01-23T12:21:25.729Z,31.47
2019-01-23T12:23:58.236Z,29.17
2019-01-23T12:26:22.091Z,27.87
2019-01-23T12:28:49.382Z,27.90
2019-01-23T12:31:16.601Z,29.10
2019-01-23T12:33:43.832Z,32.07
2019-01-23T12:36:11.114Z,27.57
2019-01-23T12:38:40.062Z,28.83
2019-01-23T12:41:07.268Z,36.53
2019-01-23T12:43:34.608Z,37.60
2019-01-23T12:46:01.890Z,42.20
2019-01-23T12:48:29.135Z,39.10
2019-01-23T12:50:56.485Z,42.73
2019-01-23T12:53:23.709Z,38.30
2019-01-23T12:55:50.896Z,33.80
2019-01-23T12:58:18.115Z,40.77
2019-01-23T13:00:45.431Z,43.10
2019-01-23T13:03:12.705Z,41.53
2019-01-23T13:05:39.929Z,44.60
2019-01-23T13:08:07.387Z,46.83
2019-01-23T13:10:34.869Z,46.70
2019-01-23T13:13:02.124Z,52.23
2019-01-23T13:15:29.338Z,43.37
2019-01-23T13:17:57.029Z,45.87
2019-01-23T13:20:25.090Z,50.67
2019-01-23T13:22:52.695Z,51.47
2019-01-23T13:25:22.091Z,53.17
2019-01-23T13:27:50.284Z,62.10
2019-01-23T13:30:19.400Z,57.20
2019-01-23T13:32:46.641Z,57.87
2019-01-23T13:35:15.508Z,62.77
2019-01-23T13:37:43.085Z,59.47
2019-01-23T13:40:17.849Z,56.03
2019-01-23T13:42:45.220Z,56.40
2019-01-23T13:45:13.021Z,62.07
2019-01-23T13:47:40.266Z,57.50
2019-01-23T13:50:08.343Z,61.27
2019-01-23T13:52:35.622Z,60.87
2019-01-23T13:55:04.153Z,60.13
2019-01-23T13:57:31.400Z,62.07
2019-01-23T13:59:58.621Z,57.50
2019-01-23T14:02:25.811Z,71.60
2019-01-23T14:04:53.028Z,60.67
2019-01-23T14:07:20.245Z,63.70
2019-01-23T14:09:47.499Z,62.87
2019-01-23T14:12:14.710Z,64.17
2019-01-23T14:14:42.023Z,64.43
2019-01-23T14:17:09.273Z,59.50
2019-01-23T14:19:36.511Z,66.50
2019-01-23T14:22:04.010Z,65.30
2019-01-23T14:24:31.282Z,59.90
2019-01-23T14:26:58.512Z,59.80
2019-01-23T14:29:25.753Z,60.23
2019-01-23T14:31:53.404Z,61.80
2019-01-23T14:34:20.809Z,60.13
2019-01-23T14:36:48.007Z,57.10
2019-01-23T14:39:15.250Z,58.83
2019-01-23T14:41:42.527Z,60.63
2019-01-23T14:44:09.805Z,62.77
2019-01-23T14:46:37.144Z,55.00
2019-01-23T14:49:04.511Z,62.93
2019-01-23T14:51:31.849Z,57.27
2019-01-23T14:53:59.044Z,58.73
2019-01-23T14:56:26.264Z,63.27
2019-01-23T14:58:53.492Z,64.80
2019-01-23T15:01:20.722Z,60.50
2019-01-23T15:03:48.007Z,56.17
2019-01-23T15:06:15.333Z,57.87
2019-01-23T15:08:42.554Z,61.43
2019-01-23T15:11:09.827Z,58.67
2019-01-23T15:13:37.063Z,56.63
2019-01-23T15:16:04.437Z,59.23
2019-01-23T15:18:31.646Z,62.37
2019-01-23T15:21:00.991Z,54.47
2019-01-23T15:23:28.273Z,60.93
2019-01-23T15:25:55.857Z,62.60
2019-01-23T15:28:23.177Z,54.97
2019-01-23T15:30:50.433Z,58.53
2019-01-23T15:33:17.688Z,58.87
2019-01-23T15:35:44.908Z,64.73
2019-01-23T15:38:12.147Z,60.47
2019-01-23T15:40:39.461Z,57.07
2019-01-23T15:43:06.682Z,59.77
2019-01-23T15:45:34.054Z,59.97
2019-01-23T15:48:01.292Z,62.73
2019-01-23T15:50:28.560Z,59.80
2019-01-23T15:52:55.843Z,58.70
2019-01-23T15:55:24.145Z,52.87
2019-01-23T15:57:51.392Z,54.17
2019-01-23T16:00:24.121Z,58.80
2019-01-23T16:02:51.460Z,51.23
2019-01-23T16:05:18.875Z,58.23
2019-01-23T16:07:46.185Z,52.87
2019-01-23T16:10:16.206Z,57.63
2019-01-23T16:12:43.555Z,54.03
2019-01-23T16:15:11.151Z,55.00
2019-01-23T16:17:38.480Z,55.23
2019-01-23T16:20:06.328Z,52.33
2019-01-23T16:22:34.069Z,62.00
2019-01-23T16:25:01.882Z,57.47
2019-01-23T16:27:29.520Z,55.90
2019-01-23T16:29:56.817Z,54.67
2019-01-23T16:32:31.320Z,61.10
2019-01-23T16:34:54.136Z,57.63
2019-01-23T16:37:21.383Z,54.17
2019-01-23T16:39:48.587Z,55.10
2019-01-23T16:42:15.926Z,59.77
2019-01-23T16:44:43.139Z,61.10
2019-01-23T16:47:10.380Z,55.87
2019-01-23T16:49:37.648Z,55.03
2019-01-23T16:52:04.852Z,55.47
2019-01-23T16:54:32.121Z,53.50
2019-01-23T16:56:59.374Z,58.70
2019-01-23T16:59:26.912Z,51.53
2019-01-23T17:01:54.432Z,53.93
2019-01-23T17:04:21.654Z,50.10
2019-01-23T17:06:48.855Z,48.57
2019-01-23T17:09:16.094Z,47.23
2019-01-23T17:11:43.308Z,46.70
2019-01-23T17:14:10.554Z,43.57
2019-01-23T17:16:38.116Z,40.70
2019-01-23T17:19:05.316Z,39.80
2019-01-23T17:21:32.570Z,45.43
2019-01-23T17:23:59.766Z,47.30
2019-01-23T17:26:27.184Z,49.07
2019-01-23T17:28:54.384Z,46.20
2019-01-23T17:31:21.968Z,38.33
2019-01-23T17:33:49.312Z,41.30
2019-01-23T17:36:16.516Z,42.33
2019-01-23T17:38:43.976Z,39.70
2019-01-23T17:41:11.357Z,42.80
2019-01-23T17:43:38.852Z,39.53
2019-01-23T17:46:06.245Z,33.87
2019-01-23T17:48:34.093Z,39.03
2019-01-23T17:51:01.365Z,39.10
2019-01-23T17:53:28.703Z,42.77
2019-01-23T17:55:56.026Z,48.70
2019-01-23T17:58:23.248Z,49.93
2019-01-23T18:00:54.543Z,48.93
2019-01-23T18:03:22.370Z,57.23
2019-01-23T18:05:51.302Z,59.17
2019-01-23T18:08:18.733Z,59.63
2019-01-23T18:10:45.983Z,63.93
2019-01-23T18:13:13.252Z,63.07
2019-01-23T18:15:40.538Z,67.63
2019-01-23T18:18:08.403Z,64.10
2019-01-23T18:20:35.671Z,70.87
2019-01-23T18:23:02.995Z,64.17
2019-01-23T18:25:30.211Z,65.70
2019-01-23T18:27:58.077Z,64.23
2019-01-23T18:30:31.508Z,64.13
2019-01-23T18:33:00.299Z,72.73
2019-01-23T18:35:48.607Z,68.90
2019-01-23T18:38:23.730Z,64.13
2019-01-23T18:41:25.311Z,61.30
2019-01-23T18:44:23.211Z,64.57
2019-01-23T18:47:33.822Z,73.67
2019-01-23T18:50:26.245Z,63.50
2019-01-23T18:52:53.502Z,59.80
2019-01-23T18:55:22.483Z,69.07
2019-01-23T18:57:49.737Z,59.47
2019-01-23T19:00:18.758Z,61.47
2019-01-23T19:02:45.973Z,66.17
2019-01-23T19:05:15.881Z,72.77
2019-01-23T19:07:43.122Z,71.83
2019-01-23T19:10:11.609Z,67.03
2019-01-23T19:12:38.814Z,71.13
2019-01-23T19:15:07.757Z,73.20
2019-01-23T19:17:34.979Z,72.10
2019-01-23T19:20:03.520Z,77.73
2019-01-23T19:22:30.730Z,72.90
2019-01-23T19:24:57.926Z,75.80
2019-01-23T19:27:25.410Z,69.13
2019-01-23T19:29:52.630Z,76.43
2019-01-23T19:32:21.035Z,80.47
2019-01-23T19:34:48.497Z,73.90
2019-01-23T19:37:15.873Z,68.60
2019-01-23T19:39:43.431Z,68.53
2019-01-23T19:42:11.701Z,67.30
2019-01-23T19:44:38.935Z,74.63
2019-01-23T19:47:06.169Z,71.23
2019-01-23T19:49:33.460Z,75.20
2019-01-23T19:52:00.758Z,70.80
2019-01-23T19:54:28.004Z,70.20
2019-01-23T19:56:55.231Z,70.80
2019-01-23T19:59:24.233Z,59.87
2019-01-23T20:01:51.504Z,55.30
2019-01-23T20:04:18.736Z,65.57
2019-01-23T20:06:45.952Z,66.43
2019-01-23T20:09:13.212Z,62.30
2019-01-23T20:11:40.505Z,66.47
2019-01-23T20:14:07.747Z,65.13
2019-01-23T20:16:35.019Z,60.77
2019-01-23T20:19:05.166Z,62.03
2019-01-23T20:21:32.369Z,69.03
2019-01-23T20:23:59.800Z,73.30
2019-01-23T20:26:31.644Z,77.90
2019-01-23T20:28:58.896Z,68.87
2019-01-23T20:31:26.202Z,70.90
2019-01-23T20:33:53.476Z,71.73
2019-01-23T20:36:20.859Z,75.60
2019-01-23T20:38:48.078Z,73.33
2019-01-23T20:41:15.300Z,67.80
2019-01-23T20:43:42.491Z,63.33
2019-01-23T20:46:09.719Z,65.20
2019-01-23T20:48:37.027Z,57.37
2019-01-23T20:51:04.387Z,67.67
2019-01-23T20:53:31.647Z,57.27
2019-01-23T20:55:58.908Z,67.60
2019-01-23T20:58:26.167Z,62.10
2019-01-23T21:00:53.439Z,72.27
2019-01-23T21:03:20.709Z,63.97
2019-01-23T21:05:47.945Z,67.47
2019-01-23T21:08:15.293Z,74.23
2019-01-23T21:10:42.528Z,70.50
2019-01-23T21:13:09.808Z,60.10
2019-01-23T21:15:37.061Z,65.40
2019-01-23T21:18:05.087Z,55.93
2019-01-23T21:20:34.840Z,67.90
2019-01-23T21:23:02.055Z,68.40
2019-01-23T21:25:29.324Z,72.73
2019-01-23T21:27:56.673Z,66.20
2019-01-23T21:30:25.204Z,78.90
2019-01-23T21:32:52.438Z,72.47
2019-01-23T21:35:20.324Z,63.33
2019-01-23T21:37:47.798Z,60.80
2019-01-23T21:40:17.447Z,62.73
2019-01-23T21:42:44.902Z,61.87
2019-01-23T21:45:12.557Z,67.47
2019-01-23T21:47:39.948Z,65.90
2019-01-23T21:50:10.247Z,63.43
2019-01-23T21:52:37.522Z,56.67
2019-01-23T21:55:05.687Z,72.00
2019-01-23T21:57:32.933Z,72.90
2019-01-23T22:00:00.212Z,75.87
2019-01-23T22:02:27.417Z,80.00
2019-01-23T22:04:54.682Z,77.70
2019-01-23T22:07:21.915Z,76.47
2019-01-23T22:09:49.119Z,69.13
2019-01-23T22:12:16.361Z,67.83
2019-01-23T22:14:43.582Z,80.23
2019-01-23T22:17:10.828Z,80.73
2019-01-23T22:19:38.092Z,84.17
2019-01-23T22:22:05.752Z,72.43
2019-01-23T22:24:33.018Z,64.90
2019-01-23T22:27:00.245Z,79.43
2019-01-23T22:29:27.427Z,83.73
2019-01-23T22:31:54.694Z,84.83
2019-01-23T22:34:21.891Z,83.50
2019-01-23T22:36:49.103Z,83.83
2019-01-23T22:39:16.392Z,81.90
2019-01-23T22:41:43.552Z,90.40
2019-01-23T22:44:10.764Z,84.00
2019-01-23T22:46:38.051Z,95.20
2019-01-23T22:49:05.229Z,96.67
2019-01-23T22:51:32.481Z,89.93
2019-01-23T22:53:59.698Z,92.47
2019-01-23T22:56:26.918Z,89.77
2019-01-23T22:58:54.158Z,90.20
2019-01-23T23:01:27.163Z,98.40
2019-01-23T23:03:54.524Z,88.23
2019-01-23T23:06:22.418Z,88.10
2019-01-23T23:08:50.607Z,89.33
2019-01-23T23:11:17.904Z,91.23
2019-01-23T23:13:45.151Z,86.00
2019-01-23T23:16:12.372Z,99.80
2019-01-23T23:18:39.644Z,95.17
2019-01-23T23:21:06.867Z,85.57
2019-01-23T23:23:34.083Z,82.70
2019-01-23T23:26:01.339Z,71.13
2019-01-23T23:28:28.537Z,84.00
2019-01-23T23:30:55.835Z,70.43
2019-01-23T23:33:23.073Z,74.83
2019-01-23T23:35:50.272Z,73.23
2019-01-23T23:38:17.526Z,74.80
2019-01-23T23:40:44.944Z,65.23
2019-01-23T23:43:12.186Z,60.23
2019-01-23T23:45:39.424Z,58.83
2019-01-23T23:48:06.732Z,65.03
2019-01-23T23:50:36.418Z,58.20
2019-01-23T23:53:03.935Z,65.67
2019-01-23T23:55:31.573Z,60.27
2019-01-23T23:57:58.803Z,63.50
